East Rutherford, NJ

4:33 PM EDT on May 06, 2016 (GMT -0400)
East Rutherford Fire | | Change Station

Elev 79 ft 40.84 °N, 74.10 °W | Updated 15 seconds ago

Overcast
Overcast
54.5 °F
Feels Like 54.5 °F
N
2.5
Wind Variable Wind from SW
Gusts 4.9 mph

Today
High -- | Low -- °F
--% Chance of Precip.
Yesterday
High -- | Low -- °F
Precip. -- in
Pressure 29.73 in
Visibility 7.0 miles
Clouds Overcast 1300 ft
Dew Point 52 °F
Humidity 90%
Rainfall 0.63 in
Snow Depth Not available.
5:48 AM 7:58 PM
New Moon, 0% visible
METAR KTEB 061951Z 08007G17KT 7SM BR OVC013 12/08 A2973 RMK AO2 SLP067 T01220083 $
Pressure 29.73 in
Visibility 7.0 miles
Clouds Overcast 1300 ft
Dew Point 52 °F
Humidity 90%
Rainfall 0.63 in
Snow Depth Not available.
5:48 AM 7:58 PM
New Moon, 0% visible
METAR KTEB 061951Z 08007G17KT 7SM BR OVC013 12/08 A2973 RMK AO2 SLP067 T01220083 $

10-Day Weather Forecast

Almanac

Astronomy

May. 06, 2016 Rise Set
Actual Time
Civil Twilight
Nautical Twilight
Astronomical Twilight
Moon
Length of Visible Light
Length of Day
Tomorrow will be .
, % of the Moon is Illuminated

Today's Extremes

State Highs State Lows

Community

WunderPhotos

Upload Photos

1,910,190 photos uploaded!

WunderBlog® & News

Nearby

Air Quality

  Air Quality AQ Index Pollutant
Not available.

Snow Depth

Station Depth Elevation

Earthquake Activity

City Distance Mag. Time & Date
Minimum magnitude displayed is 2.5.

Coastal Water Temperatures

Place Temperature

Stations

Nearby Weather Stations

Station Location Temp. Windchill Dew Point Humidity Wind Precip. Elev Updated Type
                   

Watches & Warnings

There are currently no watches in effect.